Eagle Bend, Minnesota
Current Conditions -  °F | °C
As of 5:13 PM on Sunday 21 Dec 2014 (Local Time) from KSAZ Reporting Station
Haze Haze  
Wind Chill: 27°   Ceiling: 500
Heat Index: 32°   Visibility: 5mi
Dew Point: 32°   Wind: 5mph
Humidity: 100%   Direction: 140°SE
Pressure: 29.65"   Gusts: NA
Location:  46.16°N, 95.04°W
Report Text: KSAZ 212313Z AUTO 14004KT 5SM BR OVC005 00/00 A2965 RMK AO2
Loading
Personal Weather Stations






























Interactive Weather Map New forecast layout! Learn more

10-Day Weather Forecast

Advertisements
Track Severe Weather on mobile